sensor_id;sensor_type;location;lat;lon;timestamp;P1;P2;P0
69736;PMS5003;60097;55.004;73.344;2022-07-06T00:00:40;39.13;11.55;
69736;PMS5003;60097;55.004;73.344;2022-07-06T00:03:06;21.23;10.18;
69736;PMS5003;60097;55.004;73.344;2022-07-06T00:05:36;95.35;12.68;
69736;PMS5003;60097;55.004;73.344;2022-07-06T00:08:05;81.07;13.77;
69736;PMS5003;60097;55.004;73.344;2022-07-06T00:10:32;57.35;11.88;
69736;PMS5003;60097;55.004;73.344;2022-07-06T00:13:09;38.38;10.75;
69736;PMS5003;60097;55.004;73.344;2022-07-06T00:15:36;37.30;11.32;
69736;PMS5003;60097;55.004;73.344;2022-07-06T00:18:05;19.95;10.38;
69736;PMS5003;60097;55.004;73.344;2022-07-06T00:20:32;24.73;11.00;
69736;PMS5003;60097;55.004;73.344;2022-07-06T00:23:05;28.40;13.77;
69736;PMS5003;60097;55.004;73.344;2022-07-06T00:25:32;30.90;15.32;
69736;PMS5003;60097;55.004;73.344;2022-07-06T00:28:05;30.33;15.40;
69736;PMS5003;60097;55.004;73.344;2022-07-06T00:30:32;23.10;14.18;
69736;PMS5003;60097;55.004;73.344;2022-07-06T00:33:08;28.38;14.03;
69736;PMS5003;60097;55.004;73.344;2022-07-06T00:35:35;32.65;13.85;
69736;PMS5003;60097;55.004;73.344;2022-07-06T00:38:05;34.00;14.65;
69736;PMS5003;60097;55.004;73.344;2022-07-06T00:40:32;37.83;16.70;
69736;PMS5003;60097;55.004;73.344;2022-07-06T00:43:05;42.80;20.28;
69736;PMS5003;60097;55.004;73.344;2022-07-06T00:45:34;53.33;25.98;
69736;PMS5003;60097;55.004;73.344;2022-07-06T00:48:05;105.25;37.67;
69736;PMS5003;60097;55.004;73.344;2022-07-06T00:50:32;82.90;39.95;
69736;PMS5003;60097;55.004;73.344;2022-07-06T00:53:06;97.40;44.05;
69736;PMS5003;60097;55.004;73.344;2022-07-06T00:55:36;78.68;43.67;
69736;PMS5003;60097;55.004;73.344;2022-07-06T00:58:10;74.99;40.56;
69736;PMS5003;60097;55.004;73.344;2022-07-06T01:00:37;84.57;42.75;
69736;PMS5003;60097;55.004;73.344;2022-07-06T01:03:11;72.84;39.09;
69736;PMS5003;60097;55.004;73.344;2022-07-06T01:05:38;67.03;38.95;
69736;PMS5003;60097;55.004;73.344;2022-07-06T01:08:05;76.18;38.03;
69736;PMS5003;60097;55.004;73.344;2022-07-06T01:10:33;66.10;37.20;
69736;PMS5003;60097;55.004;73.344;2022-07-06T01:13:05;67.50;36.60;
69736;PMS5003;60097;55.004;73.344;2022-07-06T01:15:32;60.95;34.65;
69736;PMS5003;60097;55.004;73.344;2022-07-06T01:18:05;56.00;33.65;
69736;PMS5003;60097;55.004;73.344;2022-07-06T01:20:34;62.42;32.53;
69736;PMS5003;60097;55.004;73.344;2022-07-06T01:23:05;56.92;33.03;
69736;PMS5003;60097;55.004;73.344;2022-07-06T01:25:32;54.00;31.25;
69736;PMS5003;60097;55.004;73.344;2022-07-06T01:28:08;42.35;29.68;
69736;PMS5003;60097;55.004;73.344;2022-07-06T01:30:37;47.67;35.90;
69736;PMS5003;60097;55.004;73.344;2022-07-06T01:33:05;49.55;33.95;
69736;PMS5003;60097;55.004;73.344;2022-07-06T01:35:33;47.55;31.85;
69736;PMS5003;60097;55.004;73.344;2022-07-06T01:38:47;54.42;30.33;
69736;PMS5003;60097;55.004;73.344;2022-07-06T01:41:22;52.60;33.33;
69736;PMS5003;60097;55.004;73.344;2022-07-06T01:43:59;53.92;32.22;
69736;PMS5003;60097;55.004;73.344;2022-07-06T01:46:35;59.10;33.83;
69736;PMS5003;60097;55.004;73.344;2022-07-06T01:49:08;60.47;36.50;
69736;PMS5003;60097;55.004;73.344;2022-07-06T01:51:34;66.82;37.53;
69736;PMS5003;60097;55.004;73.344;2022-07-06T01:54:04;63.78;38.70;
69736;PMS5003;60097;55.004;73.344;2022-07-06T01:56:40;81.25;44.50;
69736;PMS5003;60097;55.004;73.344;2022-07-06T01:59:11;78.75;43.88;
69736;PMS5003;60097;55.004;73.344;2022-07-06T02:01:38;88.32;46.55;
69736;PMS5003;60097;55.004;73.344;2022-07-06T02:04:07;73.78;43.72;
69736;PMS5003;60097;55.004;73.344;2022-07-06T02:06:34;83.43;44.22;
69736;PMS5003;60097;55.004;73.344;2022-07-06T02:09:01;88.95;47.30;
69736;PMS5003;60097;55.004;73.344;2022-07-06T02:11:28;91.22;47.47;
69736;PMS5003;60097;55.004;73.344;2022-07-06T02:13:58;83.47;46.92;
69736;PMS5003;60097;55.004;73.344;2022-07-06T02:16:25;81.93;45.33;
69736;PMS5003;60097;55.004;73.344;2022-07-06T02:18:51;87.15;45.28;
69736;PMS5003;60097;55.004;73.344;2022-07-06T02:21:18;84.50;44.17;
69736;PMS5003;60097;55.004;73.344;2022-07-06T02:23:46;79.47;43.00;
69736;PMS5003;60097;55.004;73.344;2022-07-06T02:26:17;86.05;44.88;
69736;PMS5003;60097;55.004;73.344;2022-07-06T02:28:45;71.25;41.40;
69736;PMS5003;60097;55.004;73.344;2022-07-06T02:31:14;74.20;41.58;
69736;PMS5003;60097;55.004;73.344;2022-07-06T02:36:41;65.93;39.72;
69736;PMS5003;60097;55.004;73.344;2022-07-06T02:42:13;52.75;32.20;
69736;PMS5003;60097;55.004;73.344;2022-07-06T02:44:41;44.72;27.15;
69736;PMS5003;60097;55.004;73.344;2022-07-06T02:47:25;41.30;25.58;
69736;PMS5003;60097;55.004;73.344;2022-07-06T02:49:53;60.60;32.75;
69736;PMS5003;60097;55.004;73.344;2022-07-06T02:52:55;53.25;33.25;
69736;PMS5003;60097;55.004;73.344;2022-07-06T02:55:55;44.22;26.70;
69736;PMS5003;60097;55.004;73.344;2022-07-06T02:58:54;51.33;30.73;
69736;PMS5003;60097;55.004;73.344;2022-07-06T03:01:29;42.33;27.75;
69736;PMS5003;60097;55.004;73.344;2022-07-06T03:03:56;53.13;31.85;
69736;PMS5003;60097;55.004;73.344;2022-07-06T03:06:22;50.95;32.20;
69736;PMS5003;60097;55.004;73.344;2022-07-06T03:08:49;63.40;37.28;
69736;PMS5003;60097;55.004;73.344;2022-07-06T03:11:16;73.45;42.65;
69736;PMS5003;60097;55.004;73.344;2022-07-06T03:13:42;63.03;37.75;
69736;PMS5003;60097;55.004;73.344;2022-07-06T03:16:09;66.50;39.25;
69736;PMS5003;60097;55.004;73.344;2022-07-06T03:18:36;62.43;36.87;
69736;PMS5003;60097;55.004;73.344;2022-07-06T03:21:04;73.90;38.65;
69736;PMS5003;60097;55.004;73.344;2022-07-06T03:24:08;60.70;34.75;
69736;PMS5003;60097;55.004;73.344;2022-07-06T03:26:41;61.08;35.65;
69736;PMS5003;60097;55.004;73.344;2022-07-06T03:29:18;60.67;34.08;
69736;PMS5003;60097;55.004;73.344;2022-07-06T03:32:18;63.85;34.88;
69736;PMS5003;60097;55.004;73.344;2022-07-06T03:34:55;57.88;33.10;
69736;PMS5003;60097;55.004;73.344;2022-07-06T03:37:32;65.45;32.97;
69736;PMS5003;60097;55.004;73.344;2022-07-06T03:40:03;63.67;30.42;
69736;PMS5003;60097;55.004;73.344;2022-07-06T03:42:30;53.60;29.63;
69736;PMS5003;60097;55.004;73.344;2022-07-06T03:44:56;40.08;26.70;
69736;PMS5003;60097;55.004;73.344;2022-07-06T03:47:28;45.28;27.42;
69736;PMS5003;60097;55.004;73.344;2022-07-06T03:49:55;46.63;24.83;
69736;PMS5003;60097;55.004;73.344;2022-07-06T03:52:22;42.20;25.50;
69736;PMS5003;60097;55.004;73.344;2022-07-06T03:54:55;41.60;27.00;
69736;PMS5003;60097;55.004;73.344;2022-07-06T03:57:26;47.60;24.77;
69736;PMS5003;60097;55.004;73.344;2022-07-06T03:59:56;41.67;26.38;
69736;PMS5003;60097;55.004;73.344;2022-07-06T04:02:25;40.20;26.48;
69736;PMS5003;60097;55.004;73.344;2022-07-06T04:05:02;32.22;21.58;
69736;PMS5003;60097;55.004;73.344;2022-07-06T04:07:29;37.53;23.00;
69736;PMS5003;60097;55.004;73.344;2022-07-06T04:10:03;37.80;22.13;
69736;PMS5003;60097;55.004;73.344;2022-07-06T04:12:31;35.13;23.52;
69736;PMS5003;60097;55.004;73.344;2022-07-06T04:15:08;38.55;23.15;
69736;PMS5003;60097;55.004;73.344;2022-07-06T04:17:36;32.45;21.67;
69736;PMS5003;60097;55.004;73.344;2022-07-06T04:20:48;36.60;21.60;
69736;PMS5003;60097;55.004;73.344;2022-07-06T04:23:17;33.67;19.85;
69736;PMS5003;60097;55.004;73.344;2022-07-06T04:25:43;38.75;20.98;
69736;PMS5003;60097;55.004;73.344;2022-07-06T04:34:12;41.00;20.15;
69736;PMS5003;60097;55.004;73.344;2022-07-06T04:36:49;64.78;25.05;
69736;PMS5003;60097;55.004;73.344;2022-07-06T04:39:19;43.11;19.83;
69736;PMS5003;60097;55.004;73.344;2022-07-06T04:41:45;47.42;20.90;
69736;PMS5003;60097;55.004;73.344;2022-07-06T04:44:12;51.90;21.10;
69736;PMS5003;60097;55.004;73.344;2022-07-06T04:46:54;58.47;24.05;
69736;PMS5003;60097;55.004;73.344;2022-07-06T04:49:30;49.90;24.80;
69736;PMS5003;60097;55.004;73.344;2022-07-06T04:51:57;64.15;26.67;
69736;PMS5003;60097;55.004;73.344;2022-07-06T04:54:34;51.05;21.80;
69736;PMS5003;60097;55.004;73.344;2022-07-06T04:57:02;45.72;21.42;
69736;PMS5003;60097;55.004;73.344;2022-07-06T04:59:29;50.58;20.17;
69736;PMS5003;60097;55.004;73.344;2022-07-06T05:01:55;52.35;18.83;
69736;PMS5003;60097;55.004;73.344;2022-07-06T05:04:22;43.38;19.25;
69736;PMS5003;60097;55.004;73.344;2022-07-06T05:07:20;46.15;21.17;
69736;PMS5003;60097;55.004;73.344;2022-07-06T05:09:57;46.60;22.48;
69736;PMS5003;60097;55.004;73.344;2022-07-06T05:12:24;63.75;22.85;
69736;PMS5003;60097;55.004;73.344;2022-07-06T05:14:51;77.47;27.10;
69736;PMS5003;60097;55.004;73.344;2022-07-06T05:17:19;53.28;23.60;
69736;PMS5003;60097;55.004;73.344;2022-07-06T05:19:47;68.38;25.38;
69736;PMS5003;60097;55.004;73.344;2022-07-06T05:22:16;81.28;26.88;
69736;PMS5003;60097;55.004;73.344;2022-07-06T05:24:43;71.03;25.40;
69736;PMS5003;60097;55.004;73.344;2022-07-06T05:27:10;56.35;23.02;
69736;PMS5003;60097;55.004;73.344;2022-07-06T05:29:38;45.95;20.42;
69736;PMS5003;60097;55.004;73.344;2022-07-06T05:32:04;52.78;23.13;
69736;PMS5003;60097;55.004;73.344;2022-07-06T05:34:31;45.17;19.40;
69736;PMS5003;60097;55.004;73.344;2022-07-06T05:37:35;50.13;17.75;
69736;PMS5003;60097;55.004;73.344;2022-07-06T05:40:02;33.90;15.95;
69736;PMS5003;60097;55.004;73.344;2022-07-06T05:42:29;36.42;15.75;
69736;PMS5003;60097;55.004;73.344;2022-07-06T05:44:56;44.30;16.17;
69736;PMS5003;60097;55.004;73.344;2022-07-06T05:47:31;34.35;16.23;
69736;PMS5003;60097;55.004;73.344;2022-07-06T05:50:16;32.77;15.73;
69736;PMS5003;60097;55.004;73.344;2022-07-06T05:52:59;31.88;15.40;
69736;PMS5003;60097;55.004;73.344;2022-07-06T05:58:30;51.65;17.95;
69736;PMS5003;60097;55.004;73.344;2022-07-06T06:00:58;50.92;19.13;
69736;PMS5003;60097;55.004;73.344;2022-07-06T06:03:25;50.90;18.33;
69736;PMS5003;60097;55.004;73.344;2022-07-06T06:05:51;57.37;19.03;
69736;PMS5003;60097;55.004;73.344;2022-07-06T06:08:20;57.45;19.08;
69736;PMS5003;60097;55.004;73.344;2022-07-06T06:10:49;52.88;18.83;
69736;PMS5003;60097;55.004;73.344;2022-07-06T06:13:49;35.88;19.40;
69736;PMS5003;60097;55.004;73.344;2022-07-06T06:16:49;51.50;18.83;
69736;PMS5003;60097;55.004;73.344;2022-07-06T06:20:30;42.85;18.08;
69736;PMS5003;60097;55.004;73.344;2022-07-06T06:23:30;25.30;13.75;
69736;PMS5003;60097;55.004;73.344;2022-07-06T06:26:00;30.38;12.88;
69736;PMS5003;60097;55.004;73.344;2022-07-06T06:28:27;24.17;14.05;
69736;PMS5003;60097;55.004;73.344;2022-07-06T06:30:53;24.98;12.40;
69736;PMS5003;60097;55.004;73.344;2022-07-06T06:33:20;18.77;12.43;
69736;PMS5003;60097;55.004;73.344;2022-07-06T06:35:48;29.15;11.60;
69736;PMS5003;60097;55.004;73.344;2022-07-06T06:38:16;29.67;12.52;
69736;PMS5003;60097;55.004;73.344;2022-07-06T06:40:50;19.88;12.90;
69736;PMS5003;60097;55.004;73.344;2022-07-06T06:43:50;21.50;12.73;
69736;PMS5003;60097;55.004;73.344;2022-07-06T06:46:55;21.88;11.90;
69736;PMS5003;60097;55.004;73.344;2022-07-06T06:49:22;16.48;11.93;
69736;PMS5003;60097;55.004;73.344;2022-07-06T06:51:49;23.10;12.52;
69736;PMS5003;60097;55.004;73.344;2022-07-06T06:54:17;23.13;12.13;
69736;PMS5003;60097;55.004;73.344;2022-07-06T06:56:44;20.42;11.40;
69736;PMS5003;60097;55.004;73.344;2022-07-06T06:59:19;29.40;11.00;
69736;PMS5003;60097;55.004;73.344;2022-07-06T07:01:46;17.17;10.75;
69736;PMS5003;60097;55.004;73.344;2022-07-06T07:04:13;18.67;10.73;
69736;PMS5003;60097;55.004;73.344;2022-07-06T07:06:40;18.63;8.52;
69736;PMS5003;60097;55.004;73.344;2022-07-06T07:09:06;14.85;7.93;
69736;PMS5003;60097;55.004;73.344;2022-07-06T07:11:33;23.45;8.55;
69736;PMS5003;60097;55.004;73.344;2022-07-06T07:14:05;35.00;11.90;
69736;PMS5003;60097;55.004;73.344;2022-07-06T07:17:04;37.53;9.32;
69736;PMS5003;60097;55.004;73.344;2022-07-06T07:19:40;21.67;11.32;
69736;PMS5003;60097;55.004;73.344;2022-07-06T07:22:07;17.50;7.18;
69736;PMS5003;60097;55.004;73.344;2022-07-06T07:24:33;11.93;7.53;
69736;PMS5003;60097;55.004;73.344;2022-07-06T07:27:00;22.98;13.50;
69736;PMS5003;60097;55.004;73.344;2022-07-06T07:29:27;13.90;6.53;
69736;PMS5003;60097;55.004;73.344;2022-07-06T07:31:56;11.40;6.35;
69736;PMS5003;60097;55.004;73.344;2022-07-06T07:34:26;13.48;6.38;
69736;PMS5003;60097;55.004;73.344;2022-07-06T07:36:52;10.77;6.88;
69736;PMS5003;60097;55.004;73.344;2022-07-06T07:39:18;13.75;6.50;
69736;PMS5003;60097;55.004;73.344;2022-07-06T07:41:51;13.53;6.57;
69736;PMS5003;60097;55.004;73.344;2022-07-06T07:44:18;18.42;7.45;
69736;PMS5003;60097;55.004;73.344;2022-07-06T07:46:44;25.25;7.75;
69736;PMS5003;60097;55.004;73.344;2022-07-06T07:49:10;17.15;8.38;
69736;PMS5003;60097;55.004;73.344;2022-07-06T07:51:38;18.33;7.63;
69736;PMS5003;60097;55.004;73.344;2022-07-06T07:54:05;16.17;7.00;
69736;PMS5003;60097;55.004;73.344;2022-07-06T07:56:35;13.88;6.95;
69736;PMS5003;60097;55.004;73.344;2022-07-06T07:59:02;15.60;6.78;
69736;PMS5003;60097;55.004;73.344;2022-07-06T08:01:30;18.33;8.27;
69736;PMS5003;60097;55.004;73.344;2022-07-06T08:04:07;19.17;10.07;
69736;PMS5003;60097;55.004;73.344;2022-07-06T08:06:33;18.73;10.07;
69736;PMS5003;60097;55.004;73.344;2022-07-06T08:09:00;26.95;11.95;
69736;PMS5003;60097;55.004;73.344;2022-07-06T08:11:42;30.80;11.30;
69736;PMS5003;60097;55.004;73.344;2022-07-06T08:14:08;40.47;13.88;
69736;PMS5003;60097;55.004;73.344;2022-07-06T08:16:35;71.35;20.05;
69736;PMS5003;60097;55.004;73.344;2022-07-06T08:19:07;57.25;19.52;
69736;PMS5003;60097;55.004;73.344;2022-07-06T08:21:35;77.55;24.83;
69736;PMS5003;60097;55.004;73.344;2022-07-06T08:24:02;63.50;19.92;
69736;PMS5003;60097;55.004;73.344;2022-07-06T08:26:30;66.85;21.92;
69736;PMS5003;60097;55.004;73.344;2022-07-06T08:29:02;62.10;23.15;
69736;PMS5003;60097;55.004;73.344;2022-07-06T08:31:29;80.28;23.33;
69736;PMS5003;60097;55.004;73.344;2022-07-06T08:33:55;63.13;21.60;
69736;PMS5003;60097;55.004;73.344;2022-07-06T08:36:22;74.50;22.35;
69736;PMS5003;60097;55.004;73.344;2022-07-06T08:38:49;80.63;23.08;
69736;PMS5003;60097;55.004;73.344;2022-07-06T08:41:18;53.53;19.95;
69736;PMS5003;60097;55.004;73.344;2022-07-06T08:44:19;76.10;24.02;
69736;PMS5003;60097;55.004;73.344;2022-07-06T08:46:45;78.43;22.77;
69736;PMS5003;60097;55.004;73.344;2022-07-06T08:49:16;71.20;18.67;
69736;PMS5003;60097;55.004;73.344;2022-07-06T08:51:44;39.17;13.52;
69736;PMS5003;60097;55.004;73.344;2022-07-06T08:54:11;32.40;12.32;
69736;PMS5003;60097;55.004;73.344;2022-07-06T08:56:38;42.60;14.48;
69736;PMS5003;60097;55.004;73.344;2022-07-06T08:59:06;37.40;13.07;
69736;PMS5003;60097;55.004;73.344;2022-07-06T09:01:38;30.83;13.40;
69736;PMS5003;60097;55.004;73.344;2022-07-06T09:04:07;28.85;11.48;
69736;PMS5003;60097;55.004;73.344;2022-07-06T09:06:35;44.17;13.35;
69736;PMS5003;60097;55.004;73.344;2022-07-06T09:09:08;31.13;13.90;
69736;PMS5003;60097;55.004;73.344;2022-07-06T09:11:35;39.65;14.93;
69736;PMS5003;60097;55.004;73.344;2022-07-06T09:14:03;36.83;14.73;
69736;PMS5003;60097;55.004;73.344;2022-07-06T09:17:11;38.95;15.65;
69736;PMS5003;60097;55.004;73.344;2022-07-06T09:19:38;43.80;14.63;
69736;PMS5003;60097;55.004;73.344;2022-07-06T09:22:27;36.55;15.50;
69736;PMS5003;60097;55.004;73.344;2022-07-06T09:27:45;42.57;14.30;
69736;PMS5003;60097;55.004;73.344;2022-07-06T09:32:54;44.22;15.27;
69736;PMS5003;60097;55.004;73.344;2022-07-06T09:35:23;53.63;19.45;
69736;PMS5003;60097;55.004;73.344;2022-07-06T09:41:00;37.38;17.35;
69736;PMS5003;60097;55.004;73.344;2022-07-06T09:43:29;43.25;18.77;
69736;PMS5003;60097;55.004;73.344;2022-07-06T09:45:57;42.38;17.55;
69736;PMS5003;60097;55.004;73.344;2022-07-06T09:48:24;36.85;21.05;
69736;PMS5003;60097;55.004;73.344;2022-07-06T09:50:59;48.15;18.77;
69736;PMS5003;60097;55.004;73.344;2022-07-06T09:53:29;35.65;18.10;
69736;PMS5003;60097;55.004;73.344;2022-07-06T09:56:00;38.72;18.25;
69736;PMS5003;60097;55.004;73.344;2022-07-06T09:58:28;33.30;17.30;
69736;PMS5003;60097;55.004;73.344;2022-07-06T10:00:55;45.78;18.30;
69736;PMS5003;60097;55.004;73.344;2022-07-06T10:03:22;41.83;16.65;
69736;PMS5003;60097;55.004;73.344;2022-07-06T10:05:50;35.05;18.38;
69736;PMS5003;60097;55.004;73.344;2022-07-06T10:08:37;46.78;16.13;
69736;PMS5003;60097;55.004;73.344;2022-07-06T10:11:04;37.13;15.50;
69736;PMS5003;60097;55.004;73.344;2022-07-06T10:13:32;26.50;14.70;
69736;PMS5003;60097;55.004;73.344;2022-07-06T10:16:00;37.85;15.63;
69736;PMS5003;60097;55.004;73.344;2022-07-06T10:18:26;30.98;15.25;
69736;PMS5003;60097;55.004;73.344;2022-07-06T10:20:58;32.50;14.23;
69736;PMS5003;60097;55.004;73.344;2022-07-06T10:23:25;26.73;14.52;
69736;PMS5003;60097;55.004;73.344;2022-07-06T10:25:52;31.10;14.50;
69736;PMS5003;60097;55.004;73.344;2022-07-06T10:28:20;27.95;12.52;
69736;PMS5003;60097;55.004;73.344;2022-07-06T10:30:47;26.83;12.57;
69736;PMS5003;60097;55.004;73.344;2022-07-06T10:33:15;25.88;12.05;
69736;PMS5003;60097;55.004;73.344;2022-07-06T10:35:52;21.17;11.13;
69736;PMS5003;60097;55.004;73.344;2022-07-06T10:38:30;21.63;11.82;
69736;PMS5003;60097;55.004;73.344;2022-07-06T10:41:31;18.45;11.57;
69736;PMS5003;60097;55.004;73.344;2022-07-06T10:44:14;29.52;11.35;
69736;PMS5003;60097;55.004;73.344;2022-07-06T10:46:58;30.33;11.27;
69736;PMS5003;60097;55.004;73.344;2022-07-06T10:49:25;24.40;10.25;
69736;PMS5003;60097;55.004;73.344;2022-07-06T10:51:52;18.92;10.63;
69736;PMS5003;60097;55.004;73.344;2022-07-06T10:54:19;22.35;10.38;
69736;PMS5003;60097;55.004;73.344;2022-07-06T10:57:21;19.73;11.00;
69736;PMS5003;60097;55.004;73.344;2022-07-06T11:02:41;15.57;10.98;
69736;PMS5003;60097;55.004;73.344;2022-07-06T11:05:10;16.35;10.15;
69736;PMS5003;60097;55.004;73.344;2022-07-06T11:07:50;14.68;8.75;
69736;PMS5003;60097;55.004;73.344;2022-07-06T11:10:16;16.67;9.02;
69736;PMS5003;60097;55.004;73.344;2022-07-06T11:12:44;17.27;8.25;
69736;PMS5003;60097;55.004;73.344;2022-07-06T11:15:11;13.02;7.82;
69736;PMS5003;60097;55.004;73.344;2022-07-06T11:17:37;17.90;8.68;
69736;PMS5003;60097;55.004;73.344;2022-07-06T11:20:46;14.20;8.75;
69736;PMS5003;60097;55.004;73.344;2022-07-06T11:23:51;9.13;8.00;
69736;PMS5003;60097;55.004;73.344;2022-07-06T11:26:18;20.98;8.90;
69736;PMS5003;60097;55.004;73.344;2022-07-06T11:29:17;16.85;9.32;
69736;PMS5003;60097;55.004;73.344;2022-07-06T11:31:57;13.73;9.52;
69736;PMS5003;60097;55.004;73.344;2022-07-06T11:37:06;21.63;9.68;
69736;PMS5003;60097;55.004;73.344;2022-07-06T11:39:42;22.58;9.10;
69736;PMS5003;60097;55.004;73.344;2022-07-06T11:42:10;18.58;9.00;
69736;PMS5003;60097;55.004;73.344;2022-07-06T11:44:52;9.52;8.57;
69736;PMS5003;60097;55.004;73.344;2022-07-06T11:47:19;11.38;9.25;
69736;PMS5003;60097;55.004;73.344;2022-07-06T11:49:49;16.77;9.38;
69736;PMS5003;60097;55.004;73.344;2022-07-06T11:52:46;18.00;8.60;
69736;PMS5003;60097;55.004;73.344;2022-07-06T11:55:16;14.27;8.30;
69736;PMS5003;60097;55.004;73.344;2022-07-06T11:57:42;15.60;9.25;
69736;PMS5003;60097;55.004;73.344;2022-07-06T12:00:10;15.93;8.27;
69736;PMS5003;60097;55.004;73.344;2022-07-06T12:09:02;9.32;8.32;
69736;PMS5003;60097;55.004;73.344;2022-07-06T12:11:33;8.60;7.68;
69736;PMS5003;60097;55.004;73.344;2022-07-06T12:14:02;16.20;9.70;
69736;PMS5003;60097;55.004;73.344;2022-07-06T12:16:36;16.63;9.38;
69736;PMS5003;60097;55.004;73.344;2022-07-06T12:19:03;11.27;8.02;
69736;PMS5003;60097;55.004;73.344;2022-07-06T12:21:30;9.90;8.23;
69736;PMS5003;60097;55.004;73.344;2022-07-06T12:23:57;11.93;7.95;
69736;PMS5003;60097;55.004;73.344;2022-07-06T12:26:25;15.77;7.65;
69736;PMS5003;60097;55.004;73.344;2022-07-06T12:34:13;18.45;8.05;
69736;PMS5003;60097;55.004;73.344;2022-07-06T12:36:48;17.27;7.77;
69736;PMS5003;60097;55.004;73.344;2022-07-06T12:39:16;11.25;7.03;
69736;PMS5003;60097;55.004;73.344;2022-07-06T12:41:51;8.13;7.20;
69736;PMS5003;60097;55.004;73.344;2022-07-06T12:44:22;16.35;7.60;
69736;PMS5003;60097;55.004;73.344;2022-07-06T12:47:02;10.13;6.80;
69736;PMS5003;60097;55.004;73.344;2022-07-06T12:49:30;12.27;7.20;
69736;PMS5003;60097;55.004;73.344;2022-07-06T12:51:58;10.75;7.07;
69736;PMS5003;60097;55.004;73.344;2022-07-06T12:54:35;8.82;7.20;
69736;PMS5003;60097;55.004;73.344;2022-07-06T12:57:19;18.88;8.32;
69736;PMS5003;60097;55.004;73.344;2022-07-06T12:59:48;16.83;8.40;
69736;PMS5003;60097;55.004;73.344;2022-07-06T13:02:34;13.65;7.57;
69736;PMS5003;60097;55.004;73.344;2022-07-06T13:05:06;14.27;7.55;
69736;PMS5003;60097;55.004;73.344;2022-07-06T13:07:36;10.10;6.60;
69736;PMS5003;60097;55.004;73.344;2022-07-06T13:10:04;9.50;7.50;
69736;PMS5003;60097;55.004;73.344;2022-07-06T13:13:07;9.52;6.50;
69736;PMS5003;60097;55.004;73.344;2022-07-06T13:15:42;9.43;7.30;
69736;PMS5003;60097;55.004;73.344;2022-07-06T13:18:08;8.93;7.10;
69736;PMS5003;60097;55.004;73.344;2022-07-06T13:20:35;17.50;7.93;
69736;PMS5003;60097;55.004;73.344;2022-07-06T13:23:05;8.05;7.22;
69736;PMS5003;60097;55.004;73.344;2022-07-06T13:25:31;9.48;6.88;
69736;PMS5003;60097;55.004;73.344;2022-07-06T13:28:05;15.25;6.38;
69736;PMS5003;60097;55.004;73.344;2022-07-06T13:30:31;10.40;6.88;
69736;PMS5003;60097;55.004;73.344;2022-07-06T13:33:05;10.95;6.38;
69736;PMS5003;60097;55.004;73.344;2022-07-06T13:35:32;10.80;6.40;
69736;PMS5003;60097;55.004;73.344;2022-07-06T13:38:05;11.40;7.12;
69736;PMS5003;60097;55.004;73.344;2022-07-06T13:40:35;8.23;6.18;
69736;PMS5003;60097;55.004;73.344;2022-07-06T13:43:05;9.20;5.97;
69736;PMS5003;60097;55.004;73.344;2022-07-06T13:48:36;14.65;6.38;
69736;PMS5003;60097;55.004;73.344;2022-07-06T13:51:03;11.25;6.07;
69736;PMS5003;60097;55.004;73.344;2022-07-06T13:53:30;8.90;5.68;
69736;PMS5003;60097;55.004;73.344;2022-07-06T13:56:08;5.93;5.35;
69736;PMS5003;60097;55.004;73.344;2022-07-06T13:58:34;8.88;5.75;
69736;PMS5003;60097;55.004;73.344;2022-07-06T14:01:05;5.40;4.90;
69736;PMS5003;60097;55.004;73.344;2022-07-06T14:03:31;6.25;5.68;
69736;PMS5003;60097;55.004;73.344;2022-07-06T14:05:59;9.63;5.53;
69736;PMS5003;60097;55.004;73.344;2022-07-06T14:08:31;8.63;6.07;
69736;PMS5003;60097;55.004;73.344;2022-07-06T14:10:58;14.40;5.22;
69736;PMS5003;60097;55.004;73.344;2022-07-06T14:13:34;6.65;5.25;
69736;PMS5003;60097;55.004;73.344;2022-07-06T14:16:01;9.02;5.40;
69736;PMS5003;60097;55.004;73.344;2022-07-06T14:18:28;13.53;5.57;
69736;PMS5003;60097;55.004;73.344;2022-07-06T14:20:55;10.85;5.28;
69736;PMS5003;60097;55.004;73.344;2022-07-06T14:23:22;10.43;5.05;
69736;PMS5003;60097;55.004;73.344;2022-07-06T14:28:51;12.20;5.83;
69736;PMS5003;60097;55.004;73.344;2022-07-06T14:31:18;14.02;5.82;
69736;PMS5003;60097;55.004;73.344;2022-07-06T14:33:44;10.35;5.55;
69736;PMS5003;60097;55.004;73.344;2022-07-06T14:36:15;6.22;4.90;
69736;PMS5003;60097;55.004;73.344;2022-07-06T14:38:41;11.70;5.53;
69736;PMS5003;60097;55.004;73.344;2022-07-06T14:41:08;7.38;5.10;
69736;PMS5003;60097;55.004;73.344;2022-07-06T14:43:34;8.52;4.63;
69736;PMS5003;60097;55.004;73.344;2022-07-06T14:46:02;11.60;5.50;
69736;PMS5003;60097;55.004;73.344;2022-07-06T14:48:28;10.10;4.40;
69736;PMS5003;60097;55.004;73.344;2022-07-06T14:50:55;7.40;4.95;
69736;PMS5003;60097;55.004;73.344;2022-07-06T14:53:23;5.85;4.65;
69736;PMS5003;60097;55.004;73.344;2022-07-06T14:56:00;9.73;5.20;
69736;PMS5003;60097;55.004;73.344;2022-07-06T14:58:27;11.70;4.60;
69736;PMS5003;60097;55.004;73.344;2022-07-06T15:00:53;11.65;4.90;
69736;PMS5003;60097;55.004;73.344;2022-07-06T15:03:20;6.22;4.93;
69736;PMS5003;60097;55.004;73.344;2022-07-06T15:05:57;7.43;4.60;
69736;PMS5003;60097;55.004;73.344;2022-07-06T15:08:26;11.85;4.97;
69736;PMS5003;60097;55.004;73.344;2022-07-06T15:10:52;8.85;4.57;
69736;PMS5003;60097;55.004;73.344;2022-07-06T15:13:19;12.05;4.82;
69736;PMS5003;60097;55.004;73.344;2022-07-06T15:16:18;7.65;4.80;
69736;PMS5003;60097;55.004;73.344;2022-07-06T15:18:45;5.32;4.32;
69736;PMS5003;60097;55.004;73.344;2022-07-06T15:21:16;4.68;4.28;
69736;PMS5003;60097;55.004;73.344;2022-07-06T15:23:49;4.53;3.95;
69736;PMS5003;60097;55.004;73.344;2022-07-06T15:26:17;6.07;4.10;
69736;PMS5003;60097;55.004;73.344;2022-07-06T15:28:44;5.05;4.22;
69736;PMS5003;60097;55.004;73.344;2022-07-06T15:31:44;7.28;5.07;
69736;PMS5003;60097;55.004;73.344;2022-07-06T15:34:11;7.30;5.07;
69736;PMS5003;60097;55.004;73.344;2022-07-06T15:36:38;10.32;5.63;
69736;PMS5003;60097;55.004;73.344;2022-07-06T15:39:05;6.73;4.53;
69736;PMS5003;60097;55.004;73.344;2022-07-06T15:41:41;10.13;5.00;
69736;PMS5003;60097;55.004;73.344;2022-07-06T15:44:07;7.80;4.50;
69736;PMS5003;60097;55.004;73.344;2022-07-06T15:46:34;10.40;4.70;
69736;PMS5003;60097;55.004;73.344;2022-07-06T15:49:02;5.87;4.13;
69736;PMS5003;60097;55.004;73.344;2022-07-06T15:51:29;11.77;4.47;
69736;PMS5003;60097;55.004;73.344;2022-07-06T15:53:56;7.80;4.50;
69736;PMS5003;60097;55.004;73.344;2022-07-06T15:56:36;5.30;3.83;